createdAt,value
2023-02-26T00:00:15.280Z,14.60
2023-02-26T00:02:42.935Z,7.55
2023-02-26T00:05:10.278Z,11.23
2023-02-26T00:07:37.489Z,10.48
2023-02-26T00:10:07.510Z,9.50
2023-02-26T00:12:34.683Z,9.15
2023-02-26T00:15:01.500Z,8.13
2023-02-26T00:17:43.076Z,11.05
2023-02-26T00:20:12.129Z,7.70
2023-02-26T00:22:41.762Z,9.90
2023-02-26T00:25:09.026Z,9.60
2023-02-26T00:27:36.205Z,12.32
2023-02-26T00:30:08.612Z,9.02
2023-02-26T00:32:35.851Z,8.40
2023-02-26T00:35:04.685Z,8.27
2023-02-26T00:38:14.623Z,5.75
2023-02-26T00:40:49.468Z,7.90
2023-02-26T00:43:17.985Z,7.10
2023-02-26T00:45:53.819Z,7.18
2023-02-26T00:48:39.189Z,7.55
2023-02-26T00:51:15.635Z,10.07
2023-02-26T00:54:13.364Z,7.40
2023-02-26T00:56:40.058Z,7.43
2023-02-26T00:59:06.580Z,8.90
2023-02-26T01:01:35.139Z,10.23
2023-02-26T01:04:02.030Z,6.72
2023-02-26T01:06:33.343Z,6.53
2023-02-26T01:09:18.721Z,7.32
2023-02-26T01:11:45.660Z,10.43
2023-02-26T01:14:12.502Z,10.02
2023-02-26T01:17:00.027Z,7.78
2023-02-26T01:19:41.719Z,7.70
2023-02-26T01:22:15.624Z,5.00
2023-02-26T01:24:42.772Z,6.28
2023-02-26T01:27:09.511Z,7.75
2023-02-26T01:29:36.156Z,11.23
2023-02-26T01:32:15.484Z,9.48
2023-02-26T01:34:51.641Z,6.45
2023-02-26T01:37:43.370Z,10.05
2023-02-26T01:40:34.583Z,6.88
2023-02-26T01:43:12.912Z,7.47
2023-02-26T01:45:58.060Z,6.53
2023-02-26T01:48:52.656Z,4.45
2023-02-26T01:51:39.875Z,5.38
2023-02-26T01:54:06.613Z,7.18
2023-02-26T01:56:33.560Z,11.88
2023-02-26T01:59:00.913Z,7.30
2023-02-26T02:01:27.646Z,11.38
2023-02-26T02:03:54.282Z,4.10
2023-02-26T02:06:25.326Z,5.60
2023-02-26T02:08:52.880Z,6.03
2023-02-26T02:11:20.342Z,7.57
2023-02-26T02:14:12.312Z,6.50
2023-02-26T02:16:45.001Z,4.85
2023-02-26T02:19:40.965Z,9.25
2023-02-26T02:22:34.529Z,3.22
2023-02-26T02:25:10.176Z,7.28
2023-02-26T02:27:39.892Z,3.50
2023-02-26T02:30:33.465Z,6.60
2023-02-26T02:33:19.831Z,7.05
2023-02-26T02:35:52.740Z,5.97
2023-02-26T02:38:26.230Z,6.25
2023-02-26T02:41:03.683Z,7.43
2023-02-26T02:43:36.512Z,6.10
2023-02-26T02:46:11.531Z,6.93
2023-02-26T02:48:54.545Z,8.30
2023-02-26T02:51:51.607Z,5.40
2023-02-26T02:54:27.561Z,7.68
2023-02-26T02:56:58.692Z,5.55
2023-02-26T02:59:32.613Z,3.40
2023-02-26T03:02:12.076Z,5.05
2023-02-26T03:04:40.320Z,9.05
2023-02-26T03:07:07.006Z,5.68
2023-02-26T03:09:34.154Z,8.70
2023-02-26T03:12:00.962Z,5.40
2023-02-26T03:14:29.123Z,5.88
2023-02-26T03:17:09.689Z,7.00
2023-02-26T03:19:56.667Z,4.57
2023-02-26T03:22:35.801Z,5.32
2023-02-26T03:25:15.701Z,7.57
2023-02-26T03:28:02.394Z,3.67
2023-02-26T03:30:35.779Z,6.55
2023-02-26T03:33:26.325Z,2.65
2023-02-26T03:36:03.197Z,4.72
2023-02-26T03:38:40.892Z,7.95
2023-02-26T03:41:16.087Z,6.85
2023-02-26T03:43:57.266Z,4.53
2023-02-26T03:46:31.232Z,2.72
2023-02-26T03:49:02.512Z,3.45
2023-02-26T03:51:30.488Z,4.47
2023-02-26T03:54:03.881Z,5.93
2023-02-26T03:56:42.392Z,6.03
2023-02-26T03:59:09.226Z,6.15
2023-02-26T04:04:42.436Z,5.22
2023-02-26T04:07:14.815Z,8.30
2023-02-26T04:09:43.093Z,4.80
2023-02-26T04:12:09.931Z,2.75
2023-02-26T04:14:40.256Z,4.60
2023-02-26T04:17:06.888Z,9.27
2023-02-26T04:19:33.583Z,6.65
2023-02-26T04:22:00.571Z,5.05
2023-02-26T04:24:27.140Z,4.05
2023-02-26T04:26:56.459Z,6.43
2023-02-26T04:29:23.423Z,4.70
2023-02-26T04:31:50.053Z,6.47
2023-02-26T04:34:17.024Z,11.45
2023-02-26T04:36:43.577Z,4.68
2023-02-26T04:39:10.813Z,5.63
2023-02-26T04:41:38.557Z,6.00
2023-02-26T04:44:05.644Z,5.97
2023-02-26T04:46:33.534Z,6.32
2023-02-26T04:49:00.148Z,6.20
2023-02-26T04:51:27.157Z,6.07
2023-02-26T04:53:53.716Z,4.38
2023-02-26T04:56:20.768Z,6.35
2023-02-26T04:58:47.583Z,6.65
2023-02-26T05:01:19.413Z,4.07
2023-02-26T05:03:46.087Z,5.88
2023-02-26T05:06:12.612Z,6.28
2023-02-26T05:08:42.243Z,7.90
2023-02-26T05:11:12.543Z,7.85
2023-02-26T05:13:39.498Z,4.45
2023-02-26T05:16:07.809Z,4.80
2023-02-26T05:18:34.682Z,3.38
2023-02-26T05:21:01.814Z,9.45
2023-02-26T05:23:28.911Z,4.68
2023-02-26T05:25:56.972Z,6.82
2023-02-26T05:28:25.422Z,3.80
2023-02-26T05:30:52.602Z,7.95
2023-02-26T05:33:20.468Z,5.75
2023-02-26T05:35:48.134Z,4.82
2023-02-26T05:38:15.084Z,4.38
2023-02-26T05:40:41.600Z,4.47
2023-02-26T05:43:08.835Z,7.32
2023-02-26T05:45:35.386Z,3.20
2023-02-26T05:48:02.190Z,7.60
2023-02-26T05:50:30.409Z,7.10
2023-02-26T05:52:57.113Z,3.22
2023-02-26T05:55:23.779Z,5.03
2023-02-26T05:57:50.335Z,3.90
2023-02-26T06:00:17.358Z,4.55
2023-02-26T06:02:43.919Z,4.65
2023-02-26T06:05:10.561Z,3.15
2023-02-26T06:07:37.261Z,6.32
2023-02-26T06:10:04.204Z,8.00
2023-02-26T06:12:30.694Z,4.65
2023-02-26T06:14:57.171Z,5.22
2023-02-26T06:17:23.805Z,4.47
2023-02-26T06:19:50.310Z,3.58
2023-02-26T06:22:16.798Z,6.32
2023-02-26T06:24:43.610Z,4.70
2023-02-26T06:27:10.273Z,4.82
2023-02-26T06:29:37.640Z,5.15
2023-02-26T06:32:05.151Z,5.03
2023-02-26T06:34:31.963Z,12.93
2023-02-26T06:36:58.467Z,3.97
2023-02-26T06:39:25.274Z,5.93
2023-02-26T06:41:52.131Z,3.83
2023-02-26T06:44:18.741Z,4.90
2023-02-26T06:46:45.290Z,3.38
2023-02-26T06:49:11.858Z,5.75
2023-02-26T06:51:38.556Z,3.25
2023-02-26T06:54:05.219Z,3.35
2023-02-26T06:56:31.836Z,5.03
2023-02-26T06:58:58.388Z,6.85
2023-02-26T07:01:25.052Z,3.50
2023-02-26T07:03:51.681Z,4.93
2023-02-26T07:06:27.471Z,1.38
2023-02-26T07:09:04.804Z,3.15
2023-02-26T07:11:31.354Z,3.90
2023-02-26T07:13:57.955Z,3.40
2023-02-26T07:16:26.945Z,6.53
2023-02-26T07:18:53.682Z,5.78
2023-02-26T07:21:21.343Z,3.72
2023-02-26T07:23:47.916Z,2.38
2023-02-26T07:26:15.125Z,3.85
2023-02-26T07:28:41.754Z,5.78
2023-02-26T07:31:08.459Z,4.82
2023-02-26T07:33:35.203Z,7.50
2023-02-26T07:36:02.084Z,4.50
2023-02-26T07:38:28.726Z,4.93
2023-02-26T07:40:56.555Z,4.47
2023-02-26T07:43:24.195Z,5.65
2023-02-26T07:45:52.064Z,9.40
2023-02-26T07:48:18.844Z,4.55
2023-02-26T07:50:45.786Z,3.03
2023-02-26T07:53:12.937Z,3.58
2023-02-26T07:55:39.588Z,2.35
2023-02-26T07:58:06.207Z,8.10
2023-02-26T08:00:33.263Z,3.20
2023-02-26T08:02:59.888Z,4.35
2023-02-26T08:05:28.310Z,3.65
2023-02-26T08:07:56.547Z,4.25
2023-02-26T08:10:23.406Z,5.93
2023-02-26T08:12:50.002Z,6.20
2023-02-26T08:15:16.553Z,5.70
2023-02-26T08:17:43.109Z,2.00
2023-02-26T08:20:11.816Z,6.35
2023-02-26T08:22:38.505Z,5.20
2023-02-26T08:25:05.552Z,4.93
2023-02-26T08:27:32.972Z,4.75
2023-02-26T08:29:59.953Z,4.57
2023-02-26T08:32:28.264Z,4.20
2023-02-26T08:34:55.673Z,4.60
2023-02-26T08:37:25.202Z,4.95
2023-02-26T08:39:52.843Z,3.38
2023-02-26T08:42:20.614Z,3.05
2023-02-26T08:44:48.002Z,5.65
2023-02-26T08:47:17.124Z,3.35
2023-02-26T08:49:51.216Z,4.50
2023-02-26T08:52:18.060Z,4.55
2023-02-26T08:54:44.709Z,4.80
2023-02-26T08:57:11.385Z,4.50
2023-02-26T08:59:38.021Z,5.03
2023-02-26T09:02:04.675Z,3.00
2023-02-26T09:04:31.401Z,2.25
2023-02-26T09:06:58.038Z,3.83
2023-02-26T09:09:24.569Z,3.75
2023-02-26T09:11:51.104Z,5.13
2023-02-26T09:14:17.748Z,2.90
2023-02-26T09:16:44.400Z,6.82
2023-02-26T09:19:11.324Z,3.08
2023-02-26T09:21:38.073Z,3.67
2023-02-26T09:24:04.734Z,1.75
2023-02-26T09:26:31.659Z,3.40
2023-02-26T09:28:58.173Z,5.47
2023-02-26T09:31:24.766Z,3.40
2023-02-26T09:33:51.420Z,4.43
2023-02-26T09:36:17.992Z,3.42
2023-02-26T09:38:45.994Z,2.47
2023-02-26T09:41:30.196Z,3.78
2023-02-26T09:44:15.262Z,2.75
2023-02-26T09:46:53.984Z,4.00
2023-02-26T09:49:35.273Z,2.85
2023-02-26T09:52:16.975Z,4.78
2023-02-26T09:54:50.863Z,4.80
2023-02-26T09:57:31.604Z,4.32
2023-02-26T10:00:00.582Z,4.05
2023-02-26T10:02:40.671Z,3.28
2023-02-26T10:05:28.140Z,4.00
2023-02-26T10:08:00.592Z,3.63
2023-02-26T10:11:09.808Z,3.58
2023-02-26T10:13:56.013Z,5.93
2023-02-26T10:16:28.356Z,3.85
2023-02-26T10:19:04.835Z,2.80
2023-02-26T10:21:47.402Z,2.50
2023-02-26T10:24:24.936Z,2.30
2023-02-26T10:26:58.754Z,3.33
2023-02-26T10:29:35.205Z,3.20
2023-02-26T10:32:20.752Z,2.80
2023-02-26T10:34:54.795Z,3.47
2023-02-26T10:37:36.278Z,2.38
2023-02-26T10:40:29.240Z,4.72
2023-02-26T10:43:03.030Z,4.25
2023-02-26T10:45:54.949Z,1.48
2023-02-26T10:48:36.750Z,2.25
2023-02-26T10:51:12.814Z,4.28
2023-02-26T10:53:42.263Z,2.25
2023-02-26T10:56:15.679Z,3.67
2023-02-26T10:58:42.264Z,2.67
2023-02-26T11:01:20.158Z,3.75
2023-02-26T11:03:50.075Z,1.75
2023-02-26T11:06:24.930Z,4.88
2023-02-26T11:08:54.288Z,3.38
2023-02-26T11:11:41.297Z,2.75
2023-02-26T11:14:09.348Z,2.88
2023-02-26T11:16:43.074Z,2.95
2023-02-26T11:19:12.169Z,3.42
2023-02-26T11:21:41.058Z,2.15
2023-02-26T11:24:23.668Z,2.28
2023-02-26T11:26:51.758Z,2.75
2023-02-26T11:29:20.525Z,1.48
2023-02-26T11:31:58.451Z,5.57
2023-02-26T11:34:26.482Z,2.55
2023-02-26T11:36:58.807Z,4.03
2023-02-26T11:39:28.690Z,1.33
2023-02-26T11:42:01.048Z,1.30
2023-02-26T11:44:38.655Z,3.22
2023-02-26T11:47:12.766Z,2.38
2023-02-26T11:49:50.927Z,1.40
2023-02-26T11:52:20.559Z,1.27
2023-02-26T11:55:01.215Z,2.80
2023-02-26T11:57:29.606Z,0.95
2023-02-26T11:59:59.214Z,2.95
2023-02-26T12:02:31.806Z,1.77
2023-02-26T12:05:02.623Z,1.58
2023-02-26T12:07:30.832Z,1.85
2023-02-26T12:09:57.395Z,2.03
2023-02-26T12:12:50.598Z,1.52
2023-02-26T12:15:28.441Z,1.65
2023-02-26T12:18:04.345Z,1.25
2023-02-26T12:20:47.874Z,2.00
2023-02-26T12:23:26.018Z,2.20
2023-02-26T12:26:24.562Z,2.75
2023-02-26T12:28:59.697Z,3.22
2023-02-26T12:31:42.323Z,1.83
2023-02-26T12:34:08.915Z,2.63
2023-02-26T12:37:13.799Z,2.08
2023-02-26T12:40:02.542Z,2.97
2023-02-26T12:42:38.388Z,2.55
2023-02-26T12:45:29.608Z,1.58
2023-02-26T12:48:17.756Z,2.20
2023-02-26T12:50:54.104Z,2.63
2023-02-26T12:53:33.135Z,2.53
2023-02-26T12:56:20.570Z,2.00
2023-02-26T12:59:18.428Z,3.38
2023-02-26T13:02:01.777Z,2.83
2023-02-26T13:04:51.432Z,1.65
2023-02-26T13:07:55.041Z,2.53
2023-02-26T13:10:29.354Z,3.03
2023-02-26T13:13:29.673Z,2.42
2023-02-26T13:16:20.901Z,3.58
2023-02-26T13:18:58.956Z,1.90
2023-02-26T13:21:33.516Z,1.77
2023-02-26T13:24:12.543Z,1.93
2023-02-26T13:26:41.327Z,2.35
2023-02-26T13:29:27.524Z,2.58
2023-02-26T13:32:00.119Z,1.42
2023-02-26T13:34:42.447Z,2.03
2023-02-26T13:37:24.099Z,1.83
2023-02-26T13:40:01.860Z,1.58
2023-02-26T13:42:51.414Z,3.28
2023-02-26T13:45:22.199Z,2.97
2023-02-26T13:48:14.339Z,3.67
2023-02-26T13:51:08.922Z,2.70
2023-02-26T13:53:41.327Z,2.10
2023-02-26T13:56:32.444Z,2.55
2023-02-26T13:59:16.405Z,2.72
2023-02-26T14:01:48.824Z,1.75
2023-02-26T14:04:24.837Z,1.73
2023-02-26T14:06:57.448Z,2.40
2023-02-26T14:09:24.016Z,3.38
2023-02-26T14:12:02.309Z,1.95
2023-02-26T14:14:31.837Z,3.15
2023-02-26T14:16:58.380Z,1.55
2023-02-26T14:19:34.595Z,3.17
2023-02-26T14:22:23.887Z,2.33
2023-02-26T14:24:58.310Z,2.78
2023-02-26T14:27:33.312Z,3.60
2023-02-26T14:30:04.123Z,1.58
2023-02-26T14:32:35.116Z,2.67
2023-02-26T14:35:16.762Z,2.35
2023-02-26T14:37:46.576Z,1.63
2023-02-26T14:40:20.604Z,3.15
2023-02-26T14:42:53.057Z,2.20
2023-02-26T14:45:30.641Z,1.80
2023-02-26T14:47:59.435Z,3.05
2023-02-26T14:50:34.064Z,3.88
2023-02-26T14:53:21.606Z,2.35
2023-02-26T14:56:02.664Z,3.08
2023-02-26T14:58:35.344Z,4.80
2023-02-26T15:01:21.385Z,2.97
2023-02-26T15:04:08.043Z,3.20
2023-02-26T15:06:46.715Z,1.50
2023-02-26T15:09:36.671Z,1.50
2023-02-26T15:12:25.701Z,2.95
2023-02-26T15:14:58.176Z,2.63
2023-02-26T15:17:33.517Z,1.83
2023-02-26T15:20:26.853Z,2.67
2023-02-26T15:23:06.014Z,5.75
2023-02-26T15:25:36.335Z,2.38
2023-02-26T15:28:05.718Z,1.95
2023-02-26T15:30:34.497Z,1.60
2023-02-26T15:33:05.874Z,1.30
2023-02-26T15:35:34.883Z,2.78
2023-02-26T15:38:04.061Z,1.70
2023-02-26T15:40:34.583Z,1.70
2023-02-26T15:43:03.060Z,2.85
2023-02-26T15:45:37.189Z,1.30
2023-02-26T15:48:20.103Z,2.13
2023-02-26T15:50:52.667Z,1.58
2023-02-26T15:53:28.518Z,1.95
2023-02-26T15:55:58.329Z,2.22
2023-02-26T15:58:45.142Z,1.17
2023-02-26T16:01:17.386Z,2.67
2023-02-26T16:03:44.556Z,1.95
2023-02-26T16:06:25.730Z,2.15
2023-02-26T16:08:52.572Z,2.28
2023-02-26T16:11:21.770Z,3.03
2023-02-26T16:13:52.808Z,2.08
2023-02-26T16:16:26.676Z,1.48
2023-02-26T16:18:55.606Z,5.03
2023-02-26T16:21:36.475Z,1.95
2023-02-26T16:24:07.103Z,3.78
2023-02-26T16:26:38.143Z,3.95
2023-02-26T16:29:12.889Z,2.20
2023-02-26T16:31:41.629Z,2.90
2023-02-26T16:34:40.041Z,1.50
2023-02-26T16:37:37.806Z,0.80
2023-02-26T16:40:27.596Z,2.38
2023-02-26T16:43:02.005Z,2.55
2023-02-26T16:45:37.638Z,1.98
2023-02-26T16:48:12.675Z,2.97
2023-02-26T16:50:39.419Z,2.05
2023-02-26T16:53:09.737Z,1.60
2023-02-26T16:55:39.499Z,1.92
2023-02-26T16:58:14.376Z,1.85
2023-02-26T17:00:45.444Z,1.38
2023-02-26T17:03:16.622Z,2.88
2023-02-26T17:06:07.456Z,1.85
2023-02-26T17:08:42.288Z,2.70
2023-02-26T17:11:20.400Z,2.33
2023-02-26T17:14:03.073Z,1.98
2023-02-26T17:16:29.781Z,2.00
2023-02-26T17:18:56.583Z,3.45
2023-02-26T17:21:23.195Z,2.17
2023-02-26T17:23:50.876Z,2.08
2023-02-26T17:26:17.452Z,3.30
2023-02-26T17:28:44.157Z,2.95
2023-02-26T17:31:12.592Z,4.47
2023-02-26T17:33:42.083Z,1.35
2023-02-26T17:36:18.801Z,3.15
2023-02-26T17:38:47.711Z,2.47
2023-02-26T17:41:17.216Z,3.65
2023-02-26T17:43:43.738Z,2.38
2023-02-26T17:46:12.446Z,3.00
2023-02-26T17:48:39.668Z,2.47
2023-02-26T17:51:07.129Z,1.50
2023-02-26T17:53:40.913Z,1.98
2023-02-26T17:56:30.201Z,2.15
2023-02-26T17:58:58.478Z,3.20
2023-02-26T18:01:28.518Z,9.63
2023-02-26T18:03:55.793Z,4.38
2023-02-26T18:06:24.430Z,1.92
2023-02-26T18:08:51.064Z,2.67
2023-02-26T18:11:17.908Z,1.55
2023-02-26T18:13:44.442Z,2.42
2023-02-26T18:16:18.704Z,3.13
2023-02-26T18:18:45.396Z,3.40
2023-02-26T18:21:12.747Z,2.08
2023-02-26T18:23:40.103Z,1.98
2023-02-26T18:26:07.048Z,1.95
2023-02-26T18:28:33.786Z,2.97
2023-02-26T18:31:00.587Z,3.53
2023-02-26T18:33:27.242Z,2.10
2023-02-26T18:35:56.783Z,3.33
2023-02-26T18:38:26.881Z,2.20
2023-02-26T18:40:54.139Z,3.47
2023-02-26T18:43:21.387Z,2.22
2023-02-26T18:45:49.262Z,1.75
2023-02-26T18:48:19.493Z,2.95
2023-02-26T18:50:46.935Z,5.28
2023-02-26T18:53:14.997Z,1.80
2023-02-26T18:55:41.531Z,2.42
2023-02-26T18:58:08.275Z,2.65
2023-02-26T19:00:35.415Z,2.30
2023-02-26T19:03:02.262Z,8.10
2023-02-26T19:05:28.795Z,3.30
2023-02-26T19:07:55.619Z,2.63
2023-02-26T19:10:22.687Z,3.28
2023-02-26T19:12:50.956Z,5.60
2023-02-26T19:15:18.249Z,4.03
2023-02-26T19:17:45.157Z,5.25
2023-02-26T19:20:13.011Z,4.75
2023-02-26T19:22:40.421Z,3.05
2023-02-26T19:25:07.519Z,3.92
2023-02-26T19:27:34.667Z,5.00
2023-02-26T19:30:03.555Z,3.28
2023-02-26T19:32:30.859Z,4.75
2023-02-26T19:34:57.544Z,6.60
2023-02-26T19:37:24.398Z,2.10
2023-02-26T19:39:51.121Z,3.63
2023-02-26T19:42:18.175Z,5.53
2023-02-26T19:44:44.707Z,6.63
2023-02-26T19:47:11.347Z,7.03
2023-02-26T19:49:38.034Z,4.68
2023-02-26T19:52:04.822Z,2.38
2023-02-26T19:54:31.667Z,3.05
2023-02-26T19:56:58.192Z,3.88
2023-02-26T19:59:24.834Z,3.72
2023-02-26T20:01:51.917Z,4.03
2023-02-26T20:04:19.024Z,6.43
2023-02-26T20:06:45.971Z,3.83
2023-02-26T20:09:14.146Z,4.20
2023-02-26T20:11:40.791Z,3.35
2023-02-26T20:14:08.544Z,3.13
2023-02-26T20:16:35.181Z,6.03
2023-02-26T20:19:01.920Z,5.03
2023-02-26T20:21:28.800Z,2.85
2023-02-26T20:23:56.829Z,5.05
2023-02-26T20:26:23.563Z,7.00
2023-02-26T20:28:50.417Z,2.70
2023-02-26T20:31:17.111Z,6.43
2023-02-26T20:33:43.858Z,5.38
2023-02-26T20:36:10.836Z,4.25
2023-02-26T20:38:37.776Z,4.53
2023-02-26T20:41:05.126Z,6.45
2023-02-26T20:43:32.332Z,2.33
2023-02-26T20:45:59.112Z,5.00
2023-02-26T20:48:26.591Z,4.57
2023-02-26T20:50:57.917Z,4.30
2023-02-26T20:53:24.550Z,8.18
2023-02-26T20:55:51.190Z,5.13
2023-02-26T20:58:17.832Z,2.67
2023-02-26T21:00:45.871Z,5.40
2023-02-26T21:03:12.758Z,2.75
2023-02-26T21:05:39.933Z,6.22
2023-02-26T21:08:06.522Z,4.63
2023-02-26T21:10:33.270Z,4.20
2023-02-26T21:13:00.305Z,3.70
2023-02-26T21:15:26.949Z,4.53
2023-02-26T21:17:53.893Z,4.70
2023-02-26T21:20:22.333Z,6.75
2023-02-26T21:22:49.668Z,4.43
2023-02-26T21:25:16.967Z,6.45
2023-02-26T21:27:44.120Z,5.07
2023-02-26T21:30:12.411Z,3.72
2023-02-26T21:32:40.178Z,4.68
2023-02-26T21:35:08.861Z,3.22
2023-02-26T21:37:35.490Z,5.40
2023-02-26T21:40:02.196Z,8.35
2023-02-26T21:42:28.730Z,4.32
2023-02-26T21:44:55.286Z,5.53
2023-02-26T21:47:21.824Z,6.50
2023-02-26T21:49:48.468Z,5.97
2023-02-26T21:52:15.295Z,4.05
2023-02-26T21:54:41.933Z,4.35
2023-02-26T21:57:08.666Z,3.83
2023-02-26T21:59:35.617Z,5.10
2023-02-26T22:02:02.829Z,4.43
2023-02-26T22:04:29.807Z,7.85
2023-02-26T22:06:56.767Z,6.57
2023-02-26T22:09:23.693Z,6.40
2023-02-26T22:11:50.429Z,6.78
2023-02-26T22:14:17.370Z,7.88
2023-02-26T22:16:43.957Z,6.22
2023-02-26T22:19:10.856Z,9.90
2023-02-26T22:21:37.388Z,5.90
2023-02-26T22:24:05.274Z,5.38
2023-02-26T22:26:31.999Z,4.95
2023-02-26T22:29:00.644Z,6.25
2023-02-26T22:31:32.003Z,5.93
2023-02-26T22:33:59.481Z,4.75
2023-02-26T22:36:26.115Z,9.68
2023-02-26T22:38:52.758Z,4.57
2023-02-26T22:41:19.287Z,5.10
2023-02-26T22:43:45.923Z,4.97
2023-02-26T22:46:12.600Z,3.55
2023-02-26T22:48:39.200Z,3.55
2023-02-26T22:51:05.834Z,4.75
2023-02-26T22:53:32.481Z,5.00
2023-02-26T22:55:59.213Z,6.20
2023-02-26T22:58:25.749Z,6.82
2023-02-26T23:01:07.092Z,5.90
2023-02-26T23:03:34.175Z,5.18
2023-02-26T23:06:01.123Z,5.97
2023-02-26T23:08:27.989Z,6.22
2023-02-26T23:10:58.907Z,5.22
2023-02-26T23:13:27.374Z,5.07
2023-02-26T23:15:54.089Z,6.32
2023-02-26T23:18:20.861Z,7.93
2023-02-26T23:20:48.415Z,7.82
2023-02-26T23:23:16.188Z,5.85
2023-02-26T23:25:43.752Z,9.85
2023-02-26T23:28:11.856Z,6.20
2023-02-26T23:30:39.143Z,6.30
2023-02-26T23:33:07.340Z,6.97
2023-02-26T23:35:35.229Z,7.05
2023-02-26T23:38:02.139Z,8.73
2023-02-26T23:40:28.929Z,5.20
2023-02-26T23:42:56.125Z,7.78
2023-02-26T23:45:22.976Z,5.15
2023-02-26T23:47:49.500Z,7.60
2023-02-26T23:50:16.131Z,7.40
2023-02-26T23:52:42.768Z,6.38
2023-02-26T23:55:10.226Z,5.90
2023-02-26T23:57:37.168Z,5.25
